Time;durP1;ratioP1;P1;durP2;ratioP2;P2;SDS_P1;SDS_P2;PMS_P1;PMS_P2;Temp;Humidity;BMP_temperature;BMP_pressure;BME280_temperature;BME280_humidity;BME280_pressure;Samples;Min_cycle;Max_cycle;Signal;HPM_P1;HPM_P2
2021/01/02 00:02:40;;;;;;;14.35;10.02;;;-1.20;99.90;;;;;;5023129;28;20216;-71
2021/01/02 00:05:08;;;;;;;18.40;10.80;;;-1.10;99.90;;;;;;5023389;28;20252;-71
2021/01/02 00:08:03;;;;;;;14.75;9.65;;;-1.10;99.90;;;;;;5024141;28;20687;-71
2021/01/02 00:10:36;;;;;;;17.65;11.63;;;-1.00;99.90;;;;;;5023724;28;20210;-71
2021/01/02 00:13:25;;;;;;;15.77;10.68;;;-1.00;99.90;;;;;;5023155;28;20524;-71
2021/01/02 00:16:32;;;;;;;15.98;10.63;;;-0.90;99.90;;;;;;5022945;28;20213;-71
2021/01/02 00:19:05;;;;;;;15.55;9.68;;;-0.90;99.90;;;;;;5023346;28;20221;-71
2021/01/02 00:21:44;;;;;;;16.10;10.80;;;-0.80;99.90;;;;;;5023385;28;20561;-71
2021/01/02 00:24:32;;;;;;;15.65;10.50;;;-0.80;99.90;;;;;;5023206;28;20256;-71
2021/01/02 00:27:10;;;;;;;16.33;10.80;;;-0.70;99.90;;;;;;5023303;28;20233;-71
2021/01/02 00:30:09;;;;;;;12.68;9.75;;;-0.70;99.90;;;;;;5023703;28;20212;-71
2021/01/02 00:32:49;;;;;;;14.95;9.88;;;-0.70;99.90;;;;;;5020616;28;20224;-71
2021/01/02 00:35:18;;;;;;;16.98;11.40;;;-0.60;99.90;;;;;;5023454;28;20224;-71
2021/01/02 00:37:47;;;;;;;15.57;10.35;;;-0.60;99.90;;;;;;5023264;28;20229;-71
2021/01/02 00:40:16;;;;;;;14.90;11.00;;;-0.60;99.90;;;;;;5022955;28;20210;-71
2021/01/02 00:42:44;;;;;;;14.23;10.40;;;-0.50;99.90;;;;;;5022673;28;20209;-71
2021/01/02 00:45:13;;;;;;;17.27;11.48;;;-0.50;99.90;;;;;;5023005;28;20225;-72
2021/01/02 00:47:41;;;;;;;16.65;10.50;;;-0.40;99.90;;;;;;5023646;28;20214;-72
2021/01/02 00:50:09;;;;;;;17.27;11.32;;;-0.40;99.90;;;;;;5023071;28;20209;-71
2021/01/02 00:53:03;;;;;;;13.23;9.75;;;-0.40;99.90;;;;;;5023266;28;20283;-71
2021/01/02 00:55:54;;;;;;;14.10;8.85;;;-0.40;99.90;;;;;;4992278;28;20221;-71
2021/01/02 00:58:55;;;;;;;15.13;10.57;;;-0.30;99.90;;;;;;4991001;28;20209;-71
2021/01/02 01:01:29;;;;;;;14.32;10.40;;;-0.30;99.90;;;;;;5026967;28;20202;-71
2021/01/02 01:04:28;;;;;;;15.60;10.73;;;-0.20;99.90;;;;;;5026227;28;20237;-71
2021/01/02 01:06:56;;;;;;;14.95;9.15;;;-0.20;99.90;;;;;;5026918;28;20206;-71
2021/01/02 01:09:24;;;;;;;15.05;10.05;;;-0.10;99.90;;;;;;5026919;28;20587;-71
2021/01/02 01:11:53;;;;;;;16.23;11.13;;;-0.10;99.90;;;;;;5026351;28;20214;-71
2021/01/02 01:14:20;;;;;;;14.25;9.52;;;0.00;99.90;;;;;;5027029;28;20637;-71
2021/01/02 01:16:51;;;;;;;16.23;10.35;;;-0.10;99.90;;;;;;5026831;28;20217;-71
2021/01/02 01:19:20;;;;;;;14.93;10.10;;;0.00;99.90;;;;;;5028572;28;20205;-71
2021/01/02 01:21:51;;;;;;;14.02;8.98;;;0.00;99.90;;;;;;5027623;28;20627;-71
2021/01/02 01:24:25;;;;;;;15.63;10.38;;;0.10;99.90;;;;;;5028154;28;20708;-71
2021/01/02 01:27:13;;;;;;;15.80;10.60;;;0.10;99.90;;;;;;5027849;28;20216;-71
2021/01/02 01:29:50;;;;;;;13.90;9.32;;;0.10;99.90;;;;;;5028192;28;20201;-71
2021/01/02 01:34:46;;;;;;;13.88;9.75;;;0.20;99.90;;;;;;4989373;28;20281;-74
2021/01/02 01:37:17;;;;;;;15.82;9.45;;;0.20;99.90;;;;;;4992864;28;20223;-73
2021/01/02 01:39:49;;;;;;;11.65;9.30;;;0.20;99.90;;;;;;4992401;28;20211;-74
2021/01/02 01:42:17;;;;;;;14.15;9.65;;;0.20;99.90;;;;;;4992390;28;20623;-75
2021/01/02 01:44:55;;;;;;;13.70;10.10;;;0.30;99.90;;;;;;4992515;28;20311;-74
2021/01/02 01:47:24;;;;;;;12.52;8.35;;;0.30;99.90;;;;;;4992691;28;20203;-74
2021/01/02 01:50:27;;;;;;;13.40;9.55;;;0.40;99.90;;;;;;4992580;28;20207;-74
2021/01/02 01:53:29;;;;;;;13.38;9.82;;;0.40;99.90;;;;;;4992232;28;20268;-73
2021/01/02 01:56:04;;;;;;;13.13;9.93;;;0.40;99.90;;;;;;4997791;28;20194;-74
2021/01/02 01:59:02;;;;;;;15.85;9.70;;;0.30;99.90;;;;;;5002185;28;20260;-74
2021/01/02 02:01:37;;;;;;;16.00;10.98;;;0.30;99.90;;;;;;5000460;28;20210;-74
2021/01/02 02:04:49;;;;;;;15.95;10.75;;;0.30;99.90;;;;;;4999011;28;20222;-74
2021/01/02 02:07:17;;;;;;;13.77;9.65;;;0.30;99.90;;;;;;5008533;28;20612;-73
2021/01/02 02:09:44;;;;;;;14.45;9.85;;;0.40;99.90;;;;;;5009471;28;20206;-73
2021/01/02 02:12:20;;;;;;;16.25;10.57;;;0.40;99.90;;;;;;5008276;28;20202;-73
2021/01/02 02:14:54;;;;;;;13.18;9.23;;;0.40;99.90;;;;;;5011357;28;20253;-73
2021/01/02 02:17:25;;;;;;;14.70;10.73;;;0.40;99.90;;;;;;5011401;28;20206;-73
2021/01/02 02:19:55;;;;;;;15.07;10.38;;;0.50;99.90;;;;;;5011425;28;20576;-72
2021/01/02 02:22:23;;;;;;;14.25;10.38;;;0.50;99.90;;;;;;5010664;28;20717;-73
2021/01/02 02:24:52;;;;;;;14.85;11.30;;;0.50;99.90;;;;;;5011096;28;20237;-73
2021/01/02 02:27:24;;;;;;;16.10;10.77;;;0.50;99.90;;;;;;5011506;28;20206;-74
2021/01/02 02:30:08;;;;;;;14.57;11.00;;;0.50;99.90;;;;;;5011395;28;20653;-73
2021/01/02 02:32:38;;;;;;;13.93;10.27;;;0.50;99.90;;;;;;5006556;28;20206;-73
2021/01/02 02:35:07;;;;;;;15.50;9.95;;;0.50;99.90;;;;;;5011232;28;20225;-73
2021/01/02 02:37:36;;;;;;;16.50;11.82;;;0.50;99.90;;;;;;5011022;28;20596;-75
2021/01/02 02:40:04;;;;;;;14.48;11.25;;;0.60;99.90;;;;;;5011048;28;20203;-73
2021/01/02 02:42:33;;;;;;;14.73;10.15;;;0.60;99.90;;;;;;5010105;28;20198;-73
2021/01/02 02:45:01;;;;;;;14.57;11.10;;;0.60;99.90;;;;;;5010889;28;20229;-74
2021/01/02 02:47:30;;;;;;;17.90;11.63;;;0.70;99.90;;;;;;5010542;28;20583;-72
2021/01/02 02:50:00;;;;;;;11.82;10.02;;;0.60;99.90;;;;;;5011076;28;20380;-73
2021/01/02 02:52:34;;;;;;;16.73;11.00;;;0.60;99.90;;;;;;5010230;28;20306;-73
2021/01/02 02:55:02;;;;;;;14.20;10.10;;;0.60;99.90;;;;;;5010528;28;20226;-73
2021/01/02 02:57:31;;;;;;;15.48;10.95;;;0.60;99.90;;;;;;5010491;28;20206;-73
2021/01/02 02:59:57;;;;;;;15.57;11.90;;;0.70;99.90;;;;;;5010603;28;20209;-73
2021/01/02 03:02:25;;;;;;;16.42;11.30;;;0.70;99.90;;;;;;5010251;28;20202;-73
2021/01/02 03:04:51;;;;;;;17.15;12.23;;;0.70;99.90;;;;;;5010247;28;20226;-73
2021/01/02 03:07:18;;;;;;;14.73;11.23;;;0.70;99.90;;;;;;5010526;28;20577;-74
2021/01/02 03:09:45;;;;;;;14.15;10.77;;;0.70;99.90;;;;;;5010179;28;20314;-73
2021/01/02 03:12:11;;;;;;;14.88;10.57;;;0.70;99.90;;;;;;5009673;28;20713;-73
2021/01/02 03:14:38;;;;;;;15.80;11.55;;;0.60;99.90;;;;;;5010235;28;20230;-73
2021/01/02 03:17:05;;;;;;;17.02;10.25;;;0.70;99.90;;;;;;5009765;28;20674;-73
2021/01/02 03:19:31;;;;;;;16.70;11.85;;;0.60;99.90;;;;;;5010270;28;20209;-73
2021/01/02 03:21:58;;;;;;;15.93;11.18;;;0.70;99.90;;;;;;5009955;28;20209;-73
2021/01/02 03:24:24;;;;;;;14.23;10.18;;;0.70;99.90;;;;;;5010083;28;20554;-74
2021/01/02 03:26:50;;;;;;;19.38;12.68;;;0.60;99.90;;;;;;5010639;28;20380;-73
2021/01/02 03:29:17;;;;;;;15.73;12.02;;;0.60;99.90;;;;;;5010231;28;20202;-72
2021/01/02 03:31:44;;;;;;;21.08;12.85;;;0.60;99.90;;;;;;5009720;28;20671;-73
2021/01/02 03:34:10;;;;;;;17.60;11.75;;;0.70;99.90;;;;;;5010888;28;20234;-73
2021/01/02 03:36:36;;;;;;;19.50;11.95;;;0.60;99.90;;;;;;5009958;28;20206;-74
2021/01/02 03:39:03;;;;;;;18.98;13.50;;;0.70;99.90;;;;;;5010512;28;20206;-74
2021/01/02 03:41:30;;;;;;;16.38;12.73;;;0.70;99.90;;;;;;5009526;28;20603;-74
2021/01/02 03:43:56;;;;;;;15.63;11.18;;;0.70;99.90;;;;;;5009941;28;20226;-74
2021/01/02 03:46:27;;;;;;;17.23;12.25;;;0.70;99.90;;;;;;5009782;28;20202;-74
2021/01/02 03:48:55;;;;;;;17.85;11.82;;;0.70;99.90;;;;;;5010033;28;20612;-73
2021/01/02 03:51:25;;;;;;;18.67;13.07;;;0.70;99.90;;;;;;5009599;28;20199;-73
2021/01/02 03:53:51;;;;;;;19.73;12.75;;;0.70;99.90;;;;;;5009417;28;20229;-73
2021/01/02 03:56:17;;;;;;;17.40;12.80;;;0.70;99.90;;;;;;5009764;28;20210;-73
2021/01/02 03:58:44;;;;;;;19.35;12.65;;;0.70;99.90;;;;;;5009599;28;20206;-74
2021/01/02 04:01:12;;;;;;;15.27;12.27;;;0.70;99.90;;;;;;5009669;28;20202;-74
2021/01/02 04:03:38;;;;;;;14.95;11.38;;;0.70;99.90;;;;;;5009090;28;20222;-74
2021/01/02 04:06:06;;;;;;;17.35;12.40;;;0.70;99.90;;;;;;5009703;28;20203;-73
2021/01/02 04:08:32;;;;;;;16.50;12.27;;;0.70;99.90;;;;;;5009438;28;20284;-73
2021/01/02 04:10:58;;;;;;;17.45;13.60;;;0.70;99.90;;;;;;5009551;28;20572;-73
2021/01/02 04:13:24;;;;;;;15.25;11.55;;;0.70;99.90;;;;;;5008769;28;20710;-73
2021/01/02 04:15:51;;;;;;;16.17;12.23;;;0.70;99.90;;;;;;5009959;28;20206;-74
2021/01/02 04:18:18;;;;;;;21.27;13.10;;;0.70;99.90;;;;;;5009227;28;20205;-73
2021/01/02 04:20:46;;;;;;;15.00;11.55;;;0.70;99.90;;;;;;5009281;28;20209;-73
2021/01/02 04:23:13;;;;;;;15.48;10.65;;;0.60;99.90;;;;;;5008664;28;20203;-73
2021/01/02 04:25:39;;;;;;;16.98;11.23;;;0.70;99.90;;;;;;5009095;28;20601;-73
2021/01/02 04:28:08;;;;;;;18.08;12.52;;;0.70;99.90;;;;;;5008571;28;20268;-73
2021/01/02 04:30:34;;;;;;;18.95;12.75;;;0.70;99.90;;;;;;5009012;28;20264;-73
2021/01/02 04:33:00;;;;;;;17.02;11.70;;;0.80;99.90;;;;;;5008678;28;20218;-72
2021/01/02 04:35:26;;;;;;;17.75;12.27;;;0.80;99.90;;;;;;5008902;28;20252;-74
2021/01/02 04:37:53;;;;;;;17.58;13.02;;;0.70;99.90;;;;;;5009451;28;20666;-73
2021/01/02 04:40:20;;;;;;;18.63;13.00;;;0.70;99.90;;;;;;5009270;28;20218;-73
2021/01/02 04:42:48;;;;;;;16.45;12.07;;;0.80;99.90;;;;;;5009243;28;20254;-75
2021/01/02 04:45:15;;;;;;;16.55;12.10;;;0.80;99.90;;;;;;5008867;28;20230;-74
2021/01/02 04:47:45;;;;;;;18.50;13.07;;;0.80;99.90;;;;;;5008994;28;20221;-74
2021/01/02 04:50:12;;;;;;;19.10;12.98;;;0.80;99.90;;;;;;5009137;28;20210;-73
2021/01/02 04:52:39;;;;;;;17.70;13.05;;;0.80;99.90;;;;;;5008457;28;20202;-73
2021/01/02 04:55:08;;;;;;;19.77;13.02;;;0.80;99.90;;;;;;5009078;28;20249;-73
2021/01/02 04:57:38;;;;;;;21.40;12.40;;;0.80;99.90;;;;;;5008804;28;20206;-72
2021/01/02 05:00:08;;;;;;;20.17;14.35;;;0.80;99.90;;;;;;5008932;28;20203;-73
2021/01/02 05:02:37;;;;;;;23.60;14.20;;;0.80;99.90;;;;;;5008318;28;20260;-73
2021/01/02 05:05:04;;;;;;;20.10;14.35;;;0.80;99.90;;;;;;5008746;28;20238;-73
2021/01/02 05:07:31;;;;;;;21.05;14.20;;;0.80;99.90;;;;;;5008543;28;20206;-73
2021/01/02 05:09:57;;;;;;;18.38;14.60;;;0.80;99.90;;;;;;5008709;28;20202;-73
2021/01/02 05:12:28;;;;;;;21.20;14.18;;;0.80;99.90;;;;;;5008442;28;20682;-73
2021/01/02 05:15:00;;;;;;;22.00;14.60;;;0.80;99.90;;;;;;5008811;28;20222;-73
2021/01/02 05:17:27;;;;;;;19.27;14.10;;;0.80;99.90;;;;;;5008580;28;20264;-75
2021/01/02 05:20:02;;;;;;;21.55;13.63;;;0.80;99.90;;;;;;5008714;28;20268;-73
2021/01/02 05:22:28;;;;;;;23.17;15.20;;;0.80;99.90;;;;;;5007795;28;20206;-73
2021/01/02 05:25:08;;;;;;;22.95;15.77;;;0.80;99.90;;;;;;5008645;28;20226;-73
2021/01/02 05:27:35;;;;;;;23.58;14.35;;;0.80;99.90;;;;;;5008568;28;20234;-73
2021/01/02 05:30:25;;;;;;;19.77;13.38;;;0.90;99.90;;;;;;5008545;28;20214;-74
2021/01/02 05:33:03;;;;;;;23.88;15.50;;;0.80;99.90;;;;;;5008396;28;20276;-74
2021/01/02 05:35:33;;;;;;;20.70;14.13;;;0.90;99.90;;;;;;5008104;28;20213;-73
2021/01/02 05:38:09;;;;;;;20.02;13.77;;;0.80;99.90;;;;;;5008708;28;20206;-73
2021/01/02 05:40:38;;;;;;;24.85;16.13;;;0.90;99.90;;;;;;5011817;28;20206;-72
2021/01/02 05:43:04;;;;;;;22.25;14.27;;;0.80;99.90;;;;;;5011548;28;20202;-74
2021/01/02 05:45:32;;;;;;;23.38;14.57;;;0.90;99.90;;;;;;5011721;28;20218;-73
2021/01/02 05:48:10;;;;;;;26.58;15.90;;;0.80;99.90;;;;;;5011911;28;20670;-74
2021/01/02 05:50:41;;;;;;;26.02;15.80;;;0.90;99.90;;;;;;5011747;28;20227;-73
2021/01/02 05:53:23;;;;;;;21.75;14.50;;;0.90;99.90;;;;;;5011677;28;20206;-73
2021/01/02 05:56:01;;;;;;;24.60;14.43;;;0.90;99.90;;;;;;5011963;28;20253;-72
2021/01/02 05:58:29;;;;;;;26.52;15.45;;;0.90;99.90;;;;;;5011510;28;20230;-73
2021/01/02 06:01:07;;;;;;;20.75;13.52;;;0.90;99.90;;;;;;5011759;28;20202;-73
2021/01/02 06:03:35;;;;;;;24.75;15.55;;;0.80;99.90;;;;;;5010684;28;20226;-74
2021/01/02 06:06:04;;;;;;;22.48;14.02;;;0.90;99.90;;;;;;5011753;28;20604;-73
2021/01/02 06:08:32;;;;;;;24.10;15.70;;;0.90;99.90;;;;;;5011258;28;20621;-73
2021/01/02 06:11:01;;;;;;;22.17;13.40;;;0.90;99.90;;;;;;5011401;28;20202;-74
2021/01/02 06:13:29;;;;;;;21.73;15.55;;;0.90;99.90;;;;;;5010962;28;20229;-74
2021/01/02 06:15:58;;;;;;;20.75;14.05;;;0.90;99.90;;;;;;5011607;28;20709;-73
2021/01/02 06:18:28;;;;;;;25.98;15.45;;;0.90;99.90;;;;;;5011304;28;20673;-74
2021/01/02 06:20:56;;;;;;;22.20;14.43;;;0.90;99.90;;;;;;5011280;28;20625;-74
2021/01/02 06:23:23;;;;;;;21.05;14.27;;;0.90;99.90;;;;;;5010421;28;20709;-73
2021/01/02 06:25:52;;;;;;;22.70;14.82;;;0.90;99.90;;;;;;5011155;28;20226;-74
2021/01/02 06:28:19;;;;;;;23.58;14.57;;;0.80;99.90;;;;;;5011316;28;20253;-73
2021/01/02 06:30:45;;;;;;;22.38;13.98;;;0.80;99.90;;;;;;5010922;28;20210;-73
2021/01/02 06:33:15;;;;;;;27.38;16.42;;;0.80;99.90;;;;;;5010429;28;20214;-74
2021/01/02 06:35:43;;;;;;;27.40;15.15;;;0.80;99.90;;;;;;5010847;28;20229;-73
2021/01/02 06:38:15;;;;;;;24.38;14.48;;;0.80;99.90;;;;;;5011197;28;20209;-72
2021/01/02 06:40:44;;;;;;;24.05;14.60;;;0.80;99.90;;;;;;5010667;28;20199;-73
2021/01/02 06:43:12;;;;;;;24.02;14.65;;;0.90;99.90;;;;;;5010429;28;20209;-73
2021/01/02 06:45:55;;;;;;;26.13;16.92;;;0.80;99.90;;;;;;5010493;28;20585;-74
2021/01/02 06:48:35;;;;;;;26.85;15.73;;;0.80;99.90;;;;;;5010830;28;20261;-74
2021/01/02 06:51:24;;;;;;;24.00;15.63;;;0.80;99.90;;;;;;5009866;28;20739;-73
2021/01/02 06:53:50;;;;;;;25.27;14.02;;;0.80;99.90;;;;;;5010220;28;20230;-72
2021/01/02 06:56:16;;;;;;;25.17;13.80;;;0.70;99.90;;;;;;5010758;28;20206;-73
2021/01/02 06:58:44;;;;;;;24.50;14.63;;;0.70;99.90;;;;;;5010232;28;20233;-73
2021/01/02 07:01:37;;;;;;;26.48;14.70;;;0.70;99.90;;;;;;5010517;28;20208;-74
2021/01/02 07:04:04;;;;;;;28.20;15.85;;;0.70;99.90;;;;;;5010303;28;20604;-73
2021/01/02 07:06:36;;;;;;;25.45;15.00;;;0.70;99.90;;;;;;5010218;28;20206;-74
2021/01/02 07:09:09;;;;;;;27.35;14.43;;;0.70;99.90;;;;;;5010842;28;20206;-73
2021/01/02 07:11:37;;;;;;;30.25;14.80;;;0.70;99.90;;;;;;5009724;28;20573;-74
2021/01/02 07:14:24;;;;;;;30.52;14.95;;;0.70;99.90;;;;;;5010412;28;20284;-74
2021/01/02 07:16:53;;;;;;;24.85;15.15;;;0.70;99.90;;;;;;5009799;28;20927;-72
2021/01/02 07:19:47;;;;;;;24.83;14.88;;;0.60;99.90;;;;;;5010441;28;20214;-74
2021/01/02 07:22:28;;;;;;;30.65;16.17;;;0.60;99.90;;;;;;5009618;28;20555;-74
2021/01/02 07:25:01;;;;;;;30.08;15.02;;;0.60;99.90;;;;;;5010197;28;20230;-74
2021/01/02 07:27:30;;;;;;;23.73;15.30;;;0.70;99.90;;;;;;5010158;28;20210;-72
2021/01/02 07:29:59;;;;;;;27.63;15.10;;;0.70;99.90;;;;;;5009961;28;20209;-74
2021/01/02 07:32:27;;;;;;;26.40;16.02;;;0.70;99.90;;;;;;5003228;28;20194;-73
2021/01/02 07:34:54;;;;;;;26.13;15.15;;;0.60;99.90;;;;;;5079236;22;20237;-71
2021/01/02 07:37:22;;;;;;;30.20;15.02;;;0.60;99.90;;;;;;5005812;28;20191;-72
2021/01/02 07:39:58;;;;;;;22.30;14.27;;;0.70;99.90;;;;;;5009563;28;20310;-72
2021/01/02 07:42:25;;;;;;;28.58;14.90;;;0.70;99.90;;;;;;5008968;28;20255;-72
2021/01/02 07:44:56;;;;;;;30.35;15.75;;;0.60;99.90;;;;;;5009777;28;20229;-71
2021/01/02 07:47:23;;;;;;;24.45;15.43;;;0.70;99.90;;;;;;5009985;28;20202;-72
2021/01/02 07:49:49;;;;;;;28.00;14.35;;;0.70;99.90;;;;;;5010206;28;20341;-72
2021/01/02 07:52:15;;;;;;;28.92;14.23;;;0.70;99.90;;;;;;5009295;28;20906;-72
2021/01/02 07:54:42;;;;;;;26.85;15.55;;;0.70;99.90;;;;;;5010093;28;20586;-72
2021/01/02 07:57:09;;;;;;;29.48;16.55;;;0.70;99.90;;;;;;5009918;28;20237;-72
2021/01/02 07:59:37;;;;;;;24.15;14.10;;;0.70;99.90;;;;;;5010087;28;20206;-72
2021/01/02 08:02:05;;;;;;;25.23;13.48;;;0.70;99.90;;;;;;5009237;28;20202;-72
2021/01/02 08:04:32;;;;;;;24.88;14.38;;;0.70;99.90;;;;;;5009457;28;20230;-72
2021/01/02 08:07:00;;;;;;;25.65;14.15;;;0.70;99.90;;;;;;5009878;28;20210;-72
2021/01/02 08:09:29;;;;;;;24.55;15.30;;;0.70;99.90;;;;;;5009648;28;20217;-72
2021/01/02 08:11:59;;;;;;;30.77;15.77;;;0.70;99.90;;;;;;5009211;28;20816;-72
2021/01/02 08:14:28;;;;;;;24.95;14.35;;;0.80;99.90;;;;;;5009964;28;20658;-72
2021/01/02 08:17:02;;;;;;;24.65;13.27;;;0.80;99.90;;;;;;5009607;28;20198;-72
2021/01/02 08:19:36;;;;;;;24.38;14.15;;;0.80;99.90;;;;;;5009656;28;20202;-72
2021/01/02 08:22:05;;;;;;;24.55;14.15;;;0.80;99.90;;;;;;5009169;28;20211;-72
2021/01/02 08:24:31;;;;;;;25.05;14.02;;;0.80;99.90;;;;;;5009146;28;20341;-72
2021/01/02 08:27:00;;;;;;;25.08;15.07;;;0.80;99.90;;;;;;5009578;28;20255;-71
2021/01/02 08:29:27;;;;;;;28.40;13.65;;;0.80;99.90;;;;;;5009173;28;20218;-72
2021/01/02 08:31:58;;;;;;;24.40;14.77;;;0.80;99.90;;;;;;5007927;28;20202;-72
2021/01/02 08:34:35;;;;;;;22.88;14.48;;;0.80;99.90;;;;;;5006554;28;20277;-72
2021/01/02 08:37:07;;;;;;;21.27;14.07;;;0.80;99.90;;;;;;5007292;28;20206;-72
2021/01/02 08:39:34;;;;;;;26.10;14.75;;;0.80;99.90;;;;;;5007435;28;20206;-72
2021/01/02 08:42:01;;;;;;;26.40;15.02;;;0.80;99.90;;;;;;5006397;28;20214;-72
2021/01/02 08:44:30;;;;;;;22.70;12.55;;;0.80;99.90;;;;;;5009148;28;20596;-72
2021/01/02 08:46:57;;;;;;;21.00;13.25;;;0.80;99.90;;;;;;5009240;28;20206;-72
2021/01/02 08:49:34;;;;;;;26.77;13.38;;;0.70;99.90;;;;;;5010423;28;20213;-72
2021/01/02 08:52:18;;;;;;;25.23;13.20;;;0.70;99.90;;;;;;5008815;28;20202;-72
2021/01/02 08:54:44;;;;;;;21.42;13.48;;;0.90;99.90;;;;;;5009106;28;20277;-72
2021/01/02 08:57:31;;;;;;;20.60;12.98;;;0.80;99.90;;;;;;5009164;28;20685;-72
2021/01/02 09:00:10;;;;;;;24.05;14.55;;;0.90;99.90;;;;;;5009124;28;20688;-72
2021/01/02 09:02:37;;;;;;;21.92;12.45;;;0.90;99.90;;;;;;5009552;28;20577;-72
2021/01/02 09:05:06;;;;;;;24.70;14.63;;;0.90;99.90;;;;;;5009011;28;20813;-72
2021/01/02 09:07:32;;;;;;;23.30;14.20;;;0.90;99.90;;;;;;5009316;28;20283;-72
2021/01/02 09:10:19;;;;;;;22.00;14.35;;;0.90;99.90;;;;;;5009210;28;20618;-71
2021/01/02 09:13:09;;;;;;;23.75;14.32;;;1.00;99.90;;;;;;5008711;28;20215;-72
2021/01/02 09:15:44;;;;;;;23.55;14.15;;;1.00;99.90;;;;;;5008029;28;20198;-72
2021/01/02 09:18:11;;;;;;;22.85;13.50;;;1.00;99.90;;;;;;4999960;28;20689;-71
2021/01/02 09:20:37;;;;;;;23.75;13.50;;;1.10;99.90;;;;;;5002275;28;20232;-71
2021/01/02 09:23:04;;;;;;;26.38;14.48;;;1.10;99.90;;;;;;5003106;28;20572;-71
2021/01/02 09:25:31;;;;;;;21.70;13.20;;;1.10;99.90;;;;;;5002147;28;20219;-72
2021/01/02 09:28:10;;;;;;;22.38;13.95;;;1.10;99.90;;;;;;5002308;28;20244;-72
2021/01/02 09:30:36;;;;;;;21.55;13.10;;;1.10;99.90;;;;;;5002353;28;20207;-71
2021/01/02 09:33:04;;;;;;;20.33;12.68;;;1.10;99.90;;;;;;5000975;28;20211;-71
2021/01/02 09:35:30;;;;;;;20.67;12.57;;;1.10;99.90;;;;;;5002449;28;20191;-71
2021/01/02 09:37:56;;;;;;;23.00;14.45;;;1.10;99.90;;;;;;5003132;28;20200;-72
2021/01/02 09:40:24;;;;;;;21.17;13.90;;;1.10;99.90;;;;;;5001243;28;20207;-71
2021/01/02 09:42:50;;;;;;;19.80;13.65;;;1.10;99.90;;;;;;5002272;28;20194;-72
2021/01/02 09:45:17;;;;;;;19.83;13.20;;;1.20;99.90;;;;;;5002587;28;20576;-71
2021/01/02 09:47:43;;;;;;;20.58;12.90;;;1.20;99.90;;;;;;5001176;28;20199;-72
2021/01/02 09:50:10;;;;;;;20.20;13.98;;;1.20;99.90;;;;;;5002411;28;20198;-72
2021/01/02 09:52:36;;;;;;;22.08;16.55;;;1.20;99.90;;;;;;5002118;28;20203;-71
2021/01/02 09:55:03;;;;;;;24.48;16.15;;;1.30;99.90;;;;;;5001074;28;20637;-72
2021/01/02 09:57:30;;;;;;;21.33;13.45;;;1.30;99.90;;;;;;5002062;28;20191;-72
2021/01/02 09:59:56;;;;;;;23.55;14.75;;;1.30;99.90;;;;;;5002611;28;20226;-71
2021/01/02 10:02:22;;;;;;;20.80;13.98;;;1.30;99.90;;;;;;5000611;28;20270;-71
2021/01/02 10:04:50;;;;;;;21.45;13.38;;;1.30;99.90;;;;;;5001887;28;20703;-72
2021/01/02 10:07:18;;;;;;;20.92;14.00;;;1.30;99.90;;;;;;5002823;28;20206;-72
2021/01/02 10:09:45;;;;;;;21.50;13.82;;;1.40;99.90;;;;;;5001445;28;20207;-72
2021/01/02 10:12:13;;;;;;;19.17;13.68;;;1.50;99.90;;;;;;5000869;28;20211;-73
2021/01/02 10:14:41;;;;;;;21.10;13.50;;;1.50;99.90;;;;;;5002673;28;20215;-72
2021/01/02 10:17:08;;;;;;;19.42;13.77;;;1.50;99.90;;;;;;5000111;28;20199;-71
2021/01/02 10:19:35;;;;;;;22.77;14.48;;;1.60;99.90;;;;;;4998516;28;20202;-72
2021/01/02 10:22:02;;;;;;;18.08;13.93;;;1.60;99.90;;;;;;5001140;28;20549;-72
2021/01/02 10:24:30;;;;;;;21.08;13.45;;;1.60;99.90;;;;;;4999993;28;20588;-72
2021/01/02 10:26:56;;;;;;;21.73;15.10;;;1.60;99.90;;;;;;5001705;28;20205;-72
2021/01/02 10:29:23;;;;;;;21.83;13.70;;;1.70;99.90;;;;;;5001382;28;20208;-72
2021/01/02 10:31:50;;;;;;;20.08;13.75;;;1.60;99.90;;;;;;4996942;28;20203;-72
2021/01/02 10:34:17;;;;;;;21.25;14.02;;;1.60;99.90;;;;;;4991299;28;20227;-72
2021/01/02 10:36:44;;;;;;;22.02;14.15;;;1.70;99.90;;;;;;4992007;28;20207;-72
2021/01/02 10:39:11;;;;;;;19.95;13.43;;;1.80;99.90;;;;;;4991658;28;20202;-72
2021/01/02 10:41:37;;;;;;;19.90;13.90;;;1.80;99.90;;;;;;4991117;28;20726;-72
2021/01/02 10:44:03;;;;;;;22.45;13.38;;;1.90;99.90;;;;;;4991425;28;20231;-72
2021/01/02 10:46:29;;;;;;;19.92;12.82;;;1.90;99.90;;;;;;4991552;28;20262;-72
2021/01/02 10:48:56;;;;;;;18.80;12.00;;;1.90;99.90;;;;;;4991899;28;20199;-72
2021/01/02 10:51:22;;;;;;;18.88;13.82;;;2.00;99.90;;;;;;4989245;28;20679;-71
2021/01/02 10:53:49;;;;;;;22.42;14.40;;;2.10;99.90;;;;;;4985539;28;20231;-72
2021/01/02 10:56:19;;;;;;;22.42;14.07;;;2.10;99.90;;;;;;4989730;28;20693;-72
2021/01/02 10:58:46;;;;;;;17.92;12.15;;;2.10;99.90;;;;;;4989350;28;20705;-72
2021/01/02 11:01:14;;;;;;;19.10;13.93;;;2.20;99.90;;;;;;4988831;28;20203;-73
2021/01/02 11:03:40;;;;;;;22.20;14.32;;;2.20;99.90;;;;;;4988390;28;20231;-71
2021/01/02 11:06:09;;;;;;;17.15;12.30;;;2.20;99.90;;;;;;4988620;28;20239;-69
2021/01/02 11:08:36;;;;;;;20.92;13.15;;;2.30;99.90;;;;;;4989525;28;20211;-72
2021/01/02 11:11:03;;;;;;;22.80;12.88;;;2.30;99.90;;;;;;4988685;28;20290;-71
2021/01/02 11:13:30;;;;;;;19.30;11.60;;;2.40;99.90;;;;;;4987515;28;20587;-71
2021/01/02 11:15:56;;;;;;;19.05;13.15;;;2.40;99.90;;;;;;4988917;28;20211;-71
2021/01/02 11:18:22;;;;;;;17.80;12.88;;;2.40;99.90;;;;;;4988576;28;20211;-72
2021/01/02 11:20:49;;;;;;;17.42;12.45;;;2.50;99.90;;;;;;4988839;28;20704;-71
2021/01/02 11:23:16;;;;;;;17.27;12.63;;;2.50;99.90;;;;;;4987412;28;20991;-71
2021/01/02 11:25:43;;;;;;;19.95;13.98;;;2.60;99.90;;;;;;4988921;28;21087;-72
2021/01/02 11:28:10;;;;;;;19.13;13.52;;;2.70;99.90;;;;;;4988509;28;20207;-71
2021/01/02 11:30:36;;;;;;;16.67;12.13;;;2.70;99.90;;;;;;4988176;28;20228;-72
2021/01/02 11:33:03;;;;;;;17.23;11.90;;;2.70;99.90;;;;;;4988007;28;20758;-71
2021/01/02 11:35:30;;;;;;;15.88;12.05;;;2.80;99.90;;;;;;5000733;28;20199;-71
2021/01/02 11:37:56;;;;;;;20.73;13.75;;;2.80;99.90;;;;;;5007410;28;20294;-71
2021/01/02 11:40:23;;;;;;;18.45;12.70;;;2.80;99.90;;;;;;5007815;28;20206;-71
2021/01/02 11:42:49;;;;;;;15.18;11.18;;;2.70;99.90;;;;;;5007512;28;20210;-71
2021/01/02 11:45:18;;;;;;;16.65;11.80;;;2.60;99.90;;;;;;5007139;28;20231;-71
2021/01/02 11:47:44;;;;;;;16.27;12.15;;;2.60;99.90;;;;;;5007946;28;20252;-72
2021/01/02 11:50:12;;;;;;;19.38;12.90;;;2.60;99.90;;;;;;5008391;28;20203;-71
2021/01/02 11:52:38;;;;;;;17.55;11.65;;;2.60;99.90;;;;;;5007792;28;20212;-72
2021/01/02 11:55:06;;;;;;;16.85;12.60;;;2.50;99.90;;;;;;5008412;28;20214;-71
2021/01/02 11:57:34;;;;;;;16.77;11.70;;;2.50;99.90;;;;;;5008419;28;20211;-71
2021/01/02 12:00:02;;;;;;;17.20;11.80;;;2.50;99.90;;;;;;5007897;28;20197;-72
2021/01/02 12:02:28;;;;;;;15.07;11.05;;;2.40;99.90;;;;;;5007801;28;20195;-72
2021/01/02 12:04:55;;;;;;;15.07;12.07;;;2.40;99.90;;;;;;5009231;28;20234;-71
2021/01/02 12:07:21;;;;;;;20.38;13.00;;;2.40;99.90;;;;;;5007451;28;20199;-71
2021/01/02 12:09:48;;;;;;;17.77;12.98;;;2.40;99.90;;;;;;5008054;28;20548;-71
2021/01/02 12:12:15;;;;;;;14.50;11.25;;;2.40;99.90;;;;;;5007085;28;20580;-71
2021/01/02 12:14:42;;;;;;;14.13;10.82;;;2.50;99.90;;;;;;5007110;28;20947;-72
2021/01/02 12:17:10;;;;;;;16.08;11.85;;;2.60;99.90;;;;;;5007314;28;20203;-71
2021/01/02 12:19:36;;;;;;;16.50;11.95;;;2.50;99.90;;;;;;5007928;28;20688;-70
2021/01/02 12:22:05;;;;;;;18.15;12.43;;;2.50;99.90;;;;;;5007717;28;20206;-71
2021/01/02 12:24:32;;;;;;;16.83;13.63;;;2.40;99.90;;;;;;5007492;28;20239;-71
2021/01/02 12:27:00;;;;;;;16.45;12.45;;;2.30;99.90;;;;;;5008114;28;20203;-71
2021/01/02 12:29:29;;;;;;;18.02;12.25;;;2.40;99.90;;;;;;5007005;28;20210;-71
2021/01/02 12:31:57;;;;;;;17.10;12.77;;;2.30;99.90;;;;;;5007179;28;20454;-72
2021/01/02 12:34:26;;;;;;;18.38;12.32;;;2.30;99.90;;;;;;5007001;28;20329;-71
2021/01/02 12:36:54;;;;;;;19.65;13.30;;;2.20;99.90;;;;;;5007040;28;20206;-71
2021/01/02 12:39:23;;;;;;;16.38;11.57;;;2.20;99.90;;;;;;5006649;28;20213;-72
2021/01/02 12:41:49;;;;;;;18.70;12.00;;;2.20;99.90;;;;;;5006808;28;20206;-71
2021/01/02 12:44:15;;;;;;;15.68;11.43;;;2.20;99.90;;;;;;4985619;28;20616;-72
2021/01/02 12:46:43;;;;;;;14.75;12.20;;;2.10;99.90;;;;;;4973328;28;20675;-71
2021/01/02 12:49:11;;;;;;;17.27;11.20;;;2.10;99.90;;;;;;4969681;28;20212;-71
2021/01/02 12:51:38;;;;;;;15.63;11.00;;;2.00;99.90;;;;;;4971448;28;20218;-71
2021/01/02 12:54:04;;;;;;;18.05;12.40;;;2.00;99.90;;;;;;4971669;28;20227;-72
2021/01/02 12:56:31;;;;;;;16.05;11.60;;;2.00;99.90;;;;;;4971347;28;20212;-72